Time;durP1;ratioP1;P1;durP2;ratioP2;P2;SDS_P1;SDS_P2;PMS_P1;PMS_P2;Temp;Humidity;BMP_temperature;BMP_pressure;BME280_temperature;BME280_humidity;BME280_pressure;Samples;Min_cycle;Max_cycle;Signal;HPM_P1;HPM_P2
2022/08/02 00:00:16;;;;;;;2.85;1.33;;;;;;;27.27;44.58;100130.19;4999931;28;20054;-89
2022/08/02 00:02:52;;;;;;;3.88;1.35;;;;;;;27.10;44.82;100139.53;5014554;28;20542;-89
2022/08/02 00:05:39;;;;;;;2.75;1.60;;;;;;;27.04;45.84;100148.00;5000923;28;20064;-87
2022/08/02 00:08:15;;;;;;;6.10;1.92;;;;;;;27.06;45.53;100156.69;4997245;28;20042;-89
2022/08/02 00:11:17;;;;;;;4.47;2.45;;;;;;;26.94;46.02;100154.31;4980742;28;20064;-91
2022/08/02 00:14:01;;;;;;;8.50;1.98;;;;;;;26.88;45.75;100152.69;5006975;28;20069;-90
2022/08/02 00:16:39;;;;;;;9.05;1.83;;;;;;;26.82;46.06;100164.66;5007116;28;20054;-88
2022/08/02 00:19:14;;;;;;;2.25;1.10;;;;;;;26.84;44.76;100169.84;4996109;28;20108;-89
2022/08/02 00:21:49;;;;;;;7.45;1.38;;;;;;;26.83;45.50;100168.22;5013796;28;20047;-88
2022/08/02 00:24:27;;;;;;;4.18;1.23;;;;;;;26.84;46.27;100165.22;4978844;28;20050;-89
2022/08/02 00:26:58;;;;;;;2.15;1.50;;;;;;;26.88;45.51;100192.69;5014787;28;20069;-87
2022/08/02 00:29:54;;;;;;;5.28;1.88;;;;;;;26.80;44.53;100185.06;5011275;28;20039;-87
2022/08/02 00:32:30;;;;;;;5.93;1.58;;;;;;;26.73;45.23;100193.50;4990871;28;20062;-87
2022/08/02 00:34:57;;;;;;;8.68;2.13;;;;;;;26.72;46.43;100206.28;4994014;28;20077;-86
2022/08/02 00:38:05;;;;;;;7.53;2.55;;;;;;;26.82;48.67;100207.38;5014218;28;20038;-86
2022/08/02 00:40:41;;;;;;;9.43;2.92;;;;;;;26.52;50.36;100206.31;5008667;28;20057;-89
2022/08/02 00:43:09;;;;;;;7.18;2.60;;;;;;;26.45;50.85;100210.44;4963126;28;20054;-89
2022/08/02 00:45:54;;;;;;;6.70;3.15;;;;;;;26.33;52.13;100207.16;4980964;28;20034;-86
2022/08/02 00:48:30;;;;;;;10.00;2.88;;;;;;;26.34;52.63;100208.81;5012611;28;20034;-88
2022/08/02 00:51:21;;;;;;;8.85;2.90;;;;;;;26.33;52.48;100204.44;5013383;28;20034;-91
2022/08/02 00:53:49;;;;;;;8.15;3.33;;;;;;;26.24;53.68;100203.38;4982489;28;20062;-88
2022/08/02 00:56:24;;;;;;;9.32;3.58;;;;;;;26.23;54.56;100190.88;4980237;28;20050;-90
2022/08/02 00:59:11;;;;;;;8.57;3.70;;;;;;;26.20;55.02;100197.66;5012067;28;20046;-88
2022/08/02 01:01:50;;;;;;;7.72;4.00;;;;;;;26.40;55.44;100199.56;4996699;28;20046;-87
2022/08/02 01:04:43;;;;;;;9.93;5.60;;;;;;;26.32;57.14;100197.38;4983956;28;20042;-88
2022/08/02 01:07:28;;;;;;;12.98;4.90;;;;;;;26.29;57.29;100196.03;4990220;28;20050;-88
2022/08/02 01:10:09;;;;;;;10.57;3.85;;;;;;;26.29;57.59;100201.47;4995910;28;20046;-86
2022/08/02 01:12:40;;;;;;;5.95;3.40;;;;;;;26.24;58.26;100197.94;4996463;28;20045;-86
2022/08/02 01:15:36;;;;;;;8.63;4.60;;;;;;;26.03;59.22;100208.78;4995812;28;20046;-87
2022/08/02 01:18:28;;;;;;;6.45;3.97;;;;;;;25.86;59.89;100208.22;5012963;28;20030;-88
2022/08/02 01:24:39;;;;;;;6.80;3.97;;;;;;;25.59;61.11;100208.44;4972535;29;20058;-86
2022/08/02 01:30:10;;;;;;;5.80;2.83;;;;;;;25.28;61.37;100211.31;4998336;23;20058;-88
2022/08/02 01:33:07;;;;;;;7.65;2.60;;;;;;;25.22;61.37;100213.19;4963885;28;20130;-89
2022/08/02 01:35:48;;;;;;;4.68;2.70;;;;;;;25.19;60.93;100219.13;4993209;28;20099;-88
2022/08/02 01:38:46;;;;;;;4.38;1.73;;;;;;;25.47;58.73;100215.16;4976275;28;20053;-90
2022/08/02 01:41:37;;;;;;;6.97;2.00;;;;;;;25.42;58.83;100217.88;4991985;28;20070;-91
2022/08/02 01:44:29;;;;;;;4.85;2.10;;;;;;;25.29;60.05;100215.66;4991193;28;20047;-87
2022/08/02 01:47:05;;;;;;;5.25;1.80;;;;;;;25.06;60.56;100211.47;4973911;28;20047;-89
2022/08/02 01:50:12;;;;;;;6.93;2.63;;;;;;;25.08;60.48;100212.88;4989532;28;20571;-88
2022/08/02 01:52:52;;;;;;;4.72;2.33;;;;;;;25.16;60.22;100215.06;4987756;28;20071;-87
2022/08/02 01:55:45;;;;;;;7.45;2.30;;;;;;;25.32;59.11;100225.97;5066284;23;20055;-86
2022/08/02 01:58:23;;;;;;;8.57;2.10;;;;;;;25.45;58.98;100230.91;4983222;28;20061;-89
2022/08/02 02:00:55;;;;;;;6.05;2.05;;;;;;;25.15;59.87;100240.56;4987597;28;20039;-85
2022/08/02 02:03:44;;;;;;;5.82;2.10;;;;;;;24.85;61.77;100243.13;4986486;28;20051;-87
2022/08/02 02:06:44;;;;;;;7.47;2.17;;;;;;;24.80;61.99;100248.47;4978025;28;20081;-86
2022/08/02 02:09:15;;;;;;;4.53;2.10;;;;;;;24.61;60.93;100245.38;4985743;28;20058;-88
2022/08/02 02:12:11;;;;;;;6.40;2.05;;;;;;;24.60;60.82;100248.31;4975114;28;20069;-88
2022/08/02 02:14:39;;;;;;;7.05;1.77;;;;;;;24.64;61.15;100249.44;4977597;28;20439;-87
2022/08/02 02:17:12;;;;;;;8.02;2.20;;;;;;;24.78;61.14;100253.34;4974486;28;20050;-87
2022/08/02 02:19:59;;;;;;;4.03;1.85;;;;;;;24.76;60.35;100258.19;4995720;28;20027;-88
2022/08/02 02:22:29;;;;;;;10.43;2.13;;;;;;;24.75;59.66;100250.34;4995031;28;20043;-88
2022/08/02 02:25:15;;;;;;;4.63;1.80;;;;;;;24.91;59.90;100250.19;4993398;28;20057;-87
2022/08/02 02:28:28;;;;;;;4.03;2.08;;;;;;;24.86;59.63;100246.66;4995558;28;20034;-87
2022/08/02 02:31:12;;;;;;;7.00;1.92;;;;;;;24.72;60.69;100246.25;4979178;28;20050;-87
2022/08/02 02:34:22;;;;;;;6.00;2.10;;;;;;;24.61;60.26;100247.25;4972813;28;20050;-88
2022/08/02 02:37:05;;;;;;;5.35;1.85;;;;;;;24.64;61.59;100252.16;4994858;28;20065;-88
2022/08/02 02:40:00;;;;;;;5.10;1.85;;;;;;;24.72;61.42;100262.53;4980449;28;20042;-89
2022/08/02 02:42:41;;;;;;;10.70;2.33;;;;;;;24.79;62.00;100271.22;4979185;28;20110;-86
2022/08/02 02:50:49;;;;;;;4.40;1.65;;;;;;;24.99;58.32;100284.94;5018060;28;19922;-88
2022/08/02 02:53:25;;;;;;;3.28;1.30;;;;;;;24.75;58.31;100280.16;5013104;28;20034;-85
2022/08/02 02:56:20;;;;;;;6.60;1.45;;;;;;;24.50;59.13;100278.88;4998351;28;20050;-87
2022/08/02 02:58:53;;;;;;;2.85;1.50;;;;;;;24.48;59.20;100283.75;5014850;28;20049;-88
2022/08/02 03:01:38;;;;;;;7.20;1.60;;;;;;;24.64;56.88;100288.22;5019391;28;20042;-85
2022/08/02 03:04:12;;;;;;;6.00;1.58;;;;;;;24.73;56.55;100291.25;5020054;28;20050;-85
2022/08/02 03:06:50;;;;;;;4.60;2.28;;;;;;;24.70;55.69;100297.19;5008570;23;20058;-84
2022/08/02 03:09:38;;;;;;;4.50;1.90;;;;;;;24.65;55.83;100294.44;4994980;28;20070;-84
2022/08/02 03:12:26;;;;;;;5.20;2.30;;;;;;;24.48;57.68;100294.59;4978144;28;20103;-84
2022/08/02 03:15:23;;;;;;;5.00;2.15;;;;;;;24.16;60.14;100297.28;4995952;28;20018;-83
2022/08/02 03:18:01;;;;;;;3.45;2.13;;;;;;;24.10;61.03;100300.97;4990104;28;20047;-84
2022/08/02 03:20:44;;;;;;;7.55;2.53;;;;;;;23.96;62.41;100301.66;4992478;28;20057;-84
2022/08/02 03:23:29;;;;;;;7.68;2.70;;;;;;;24.09;61.70;100303.97;4997489;28;20026;-85
2022/08/02 03:26:13;;;;;;;;;;;;;;;23.97;61.69;100309.50;4975837;28;20055;-84
2022/08/02 03:28:45;;;;;;;5.07;2.55;;;;;;;24.00;61.61;100311.69;4985915;28;20294;-84
2022/08/02 03:31:33;;;;;;;12.55;2.33;;;;;;;23.90;61.98;100308.88;4974364;29;20057;-85
2022/08/02 03:34:12;;;;;;;5.30;2.00;;;;;;;23.91;62.71;100307.81;4957726;29;20146;-85
2022/08/02 03:37:00;;;;;;;4.28;2.47;;;;;;;23.87;63.57;100309.41;4972523;29;20054;-85
2022/08/02 03:39:41;;;;;;;3.90;2.15;;;;;;;23.92;64.38;100320.28;4929676;29;20059;-87
2022/08/02 03:42:26;;;;;;;6.47;2.72;;;;;;;23.97;68.38;100320.34;4993369;28;20050;-84
2022/08/02 03:45:12;;;;;;;6.68;2.58;;;;;;;23.89;66.23;100318.09;4994830;28;20038;-86
2022/08/02 03:48:02;;;;;;;3.53;2.47;;;;;;;23.95;66.57;100327.09;4903652;29;20056;-85
2022/08/02 03:51:36;;;;;;;3.67;2.88;;;;;;;24.12;67.16;100339.50;4934725;29;20052;-85
2022/08/02 03:54:12;;;;;;;3.78;3.15;;;;;;;23.98;69.77;100340.94;4904015;29;20063;-85
2022/08/02 03:56:48;;;;;;;5.10;3.03;;;;;;;24.07;70.85;100336.69;4917803;29;20185;-86
2022/08/02 04:00:07;;;;;;;8.45;4.05;;;;;;;24.14;73.75;100337.34;4932673;29;20119;-86
2022/08/02 04:03:17;;;;;;;10.15;3.50;;;;;;;24.13;76.86;100351.94;4922060;29;20024;-86
2022/08/02 04:06:22;;;;;;;4.82;3.42;;;;;;;24.20;78.16;100346.31;4930226;29;20055;-85
2022/08/02 04:09:15;;;;;;;11.15;4.43;;;;;;;24.18;80.29;100356.59;4971703;28;20085;-86
2022/08/02 04:12:11;;;;;;;11.25;4.55;;;;;;;24.24;81.66;100361.00;4975270;28;20061;-86
2022/08/02 04:15:10;;;;;;;12.88;4.70;;;;;;;24.21;82.55;100364.22;4964304;28;20114;-85
2022/08/02 04:18:18;;;;;;;4.82;4.28;;;;;;;24.19;85.76;100382.63;4984965;28;20047;-87
2022/08/02 04:21:30;;;;;;;7.90;4.88;;;;;;;24.14;86.64;100407.75;4991779;28;20046;-85
2022/08/02 04:25:01;;;;;;;7.97;5.03;;;;;;;24.26;86.24;100406.81;4996665;28;20021;-85
2022/08/02 04:27:54;;;;;;;8.70;5.30;;;;;;;24.14;90.74;100423.19;4995688;28;20034;-84
2022/08/02 04:30:40;;;;;;;9.02;4.60;;;;;;;24.14;91.79;100437.53;4976993;28;20054;-87
2022/08/02 04:33:34;;;;;;;10.98;3.25;;;;;;;24.03;93.93;100426.78;4926041;29;20035;-86
2022/08/02 04:36:07;;;;;;;12.57;3.45;;;;;;;24.06;94.59;100443.34;4928297;29;20169;-85
2022/08/02 04:39:21;;;;;;;8.10;2.92;;;;;;;24.12;94.11;100431.56;4998908;23;20058;-85
2022/08/02 04:41:54;;;;;;;8.32;2.35;;;;;;;24.12;92.85;100442.41;4993771;28;20058;-86
2022/08/02 04:45:06;;;;;;;4.70;2.38;;;;;;;24.05;91.29;100447.16;4981522;28;20042;-86
2022/08/02 04:47:45;;;;;;;7.28;2.20;;;;;;;24.00;91.66;100459.78;4980760;28;20038;-82
2022/08/02 04:51:20;;;;;;;11.05;2.35;;;;;;;24.07;90.26;100472.09;4994002;28;20504;-81
2022/08/02 04:54:10;;;;;;;7.88;2.40;;;;;;;24.06;90.62;100475.84;4995404;28;20058;-81
2022/08/02 04:56:52;;;;;;;7.10;2.00;;;;;;;24.08;91.06;100476.44;5009664;28;20042;-82
2022/08/02 05:00:09;;;;;;;8.80;2.05;;;;;;;24.03;92.42;100478.25;4978045;28;20058;-80
2022/08/02 05:03:07;;;;;;;8.23;1.92;;;;;;;24.05;93.79;100484.25;4996586;28;20031;-83
2022/08/02 05:06:05;;;;;;;9.35;2.40;;;;;;;24.07;93.97;100492.91;4971091;28;20058;-81
2022/08/02 05:08:41;;;;;;;8.98;2.53;;;;;;;24.11;92.92;100511.13;5003896;28;20082;-84
2022/08/02 05:11:23;;;;;;;7.65;2.00;;;;;;;24.15;87.60;100535.84;4992307;28;20039;-82
2022/08/02 05:16:36;;;;;;;7.33;1.57;;;;;;;24.16;86.10;100530.19;5107598;23;20058;-83
2022/08/02 05:19:12;;;;;;;6.50;1.83;;;;;;;24.21;83.88;100532.16;4966439;28;20086;-81
2022/08/02 05:21:46;;;;;;;6.22;1.33;;;;;;;24.14;82.91;100543.16;5014609;28;20081;-87
2022/08/02 05:24:45;;;;;;;8.75;1.13;;;;;;;24.22;80.86;100543.78;5039116;23;20077;-83
2022/08/02 05:27:33;;;;;;;12.60;1.20;;;;;;;24.17;80.86;100536.41;5001555;28;20053;-85
2022/08/02 05:30:32;;;;;;;10.02;1.45;;;;;;;24.17;82.03;100553.50;5014385;28;20049;-81
2022/08/02 05:33:17;;;;;;;9.23;1.42;;;;;;;24.29;82.61;100557.97;5015134;28;20045;-82
2022/08/02 05:36:42;;;;;;;13.48;1.85;;;;;;;24.15;84.71;100566.47;5002807;28;20026;-84
2022/08/02 05:39:34;;;;;;;15.63;2.42;;;;;;;24.12;86.10;100577.81;4972302;28;20022;-80
2022/08/02 05:42:16;;;;;;;9.15;1.50;;;;;;;24.29;85.57;100577.78;5016617;28;20027;-81
2022/08/02 05:45:14;;;;;;;20.83;1.88;;;;;;;24.18;85.26;100582.22;4999312;28;20041;-80
2022/08/02 05:47:42;;;;;;;9.15;1.50;;;;;;;24.16;85.74;100580.84;5009776;28;20038;-80
2022/08/02 05:50:14;;;;;;;10.38;1.60;;;;;;;24.21;83.08;100604.44;4993054;28;20041;-80
2022/08/02 05:53:38;;;;;;;11.88;2.00;;;;;;;24.28;83.30;100596.97;5009268;28;20043;-80
2022/08/02 05:56:10;;;;;;;13.50;2.45;;;;;;;24.36;81.94;100599.25;5011896;28;20134;-82
2022/08/02 05:59:28;;;;;;;14.43;1.52;;;;;;;24.38;82.00;100616.06;5013365;28;20034;-82
2022/08/02 06:02:18;;;;;;;9.07;1.60;;;;;;;24.29;82.19;100598.63;4956411;28;20098;-81
2022/08/02 06:05:06;;;;;;;10.18;1.35;;;;;;;24.37;80.55;100600.88;4985408;28;20050;-82
2022/08/02 06:07:59;;;;;;;12.00;1.20;;;;;;;24.28;81.48;100603.22;4998318;28;20054;-82
2022/08/02 06:11:04;;;;;;;8.77;1.25;;;;;;;24.41;80.41;100620.97;5007888;28;20049;-79
2022/08/02 06:14:32;;;;;;;10.20;1.58;;;;;;;24.66;79.16;100621.31;5014746;28;20124;-81
2022/08/02 06:17:42;;;;;;;6.88;1.40;;;;;;;24.73;78.14;100621.94;5012036;28;20050;-80
2022/08/02 06:21:33;;;;;;;11.07;1.15;;;;;;;24.80;77.58;100633.41;5015530;28;20044;-81
2022/08/02 06:28:04;;;;;;;7.30;1.40;;;;;;;24.76;78.14;100626.06;5001402;28;20050;-82
2022/08/02 06:31:03;;;;;;;7.95;1.17;;;;;;;24.81;77.14;100618.78;4976580;29;20051;-82
2022/08/02 06:40:32;;;;;;;9.73;1.67;;;;;;;24.86;76.09;100604.53;5114829;23;20039;-82
2022/08/02 06:43:32;;;;;;;10.10;1.83;;;;;;;24.90;75.51;100606.44;4986339;28;20046;-80
2022/08/02 06:46:38;;;;;;;10.23;1.15;;;;;;;24.76;75.22;100618.72;4996318;28;20062;-80
2022/08/02 06:49:14;;;;;;;6.00;1.20;;;;;;;24.88;74.87;100624.88;4972427;28;20087;-80
2022/08/02 06:51:40;;;;;;;6.30;1.48;;;;;;;24.98;73.80;100614.16;4954989;28;20051;-80
2022/08/02 06:58:49;;;;;;;9.90;0.80;;;;;;;25.83;67.08;100628.81;5000629;28;20073;-80
2022/08/02 07:02:03;;;;;;;6.40;0.93;;;;;;;25.65;67.21;100640.91;5001263;28;20086;-79
2022/08/02 07:05:10;;;;;;;5.25;1.13;;;;;;;25.81;66.81;100628.25;5001174;28;20015;-83
2022/08/02 07:08:31;;;;;;;7.97;1.08;;;;;;;26.26;64.14;100641.38;5001465;28;20046;-88
2022/08/02 07:12:13;;;;;;;7.32;1.00;;;;;;;25.98;65.72;100646.06;4978754;28;20095;-90
2022/08/02 07:17:36;;;;;;;3.03;1.10;;;;;;;26.06;63.37;100644.72;5198161;23;20508;-82
2022/08/02 07:20:06;;;;;;;12.00;1.08;;;;;;;25.96;62.08;100637.34;4948370;28;20054;-82
2022/08/02 07:22:34;;;;;;;7.22;1.35;;;;;;;26.06;60.54;100670.00;4985367;28;20484;-80
2022/08/02 07:25:01;;;;;;;13.57;1.30;;;;;;;25.89;61.51;100628.59;4985483;28;20042;-81
2022/08/02 07:27:27;;;;;;;2.78;0.80;;;;;;;26.01;61.47;100645.53;4968451;28;20049;-82
2022/08/02 07:29:54;;;;;;;13.82;1.38;;;;;;;26.32;60.55;100640.31;4967476;28;20050;-80
2022/08/02 07:32:23;;;;;;;3.20;0.80;;;;;;;26.44;59.12;100643.66;4964021;29;20041;-81
2022/08/02 07:34:49;;;;;;;4.43;0.90;;;;;;;26.39;59.63;100640.91;4945696;29;20039;-82
2022/08/02 07:37:28;;;;;;;5.82;0.93;;;;;;;26.25;59.95;100656.06;4946547;29;20035;-82
2022/08/02 07:39:55;;;;;;;2.38;0.85;;;;;;;26.17;62.08;100641.88;4974932;28;20451;-83
2022/08/02 07:42:21;;;;;;;3.65;0.70;;;;;;;26.27;62.09;100643.00;4982084;28;20035;-84
2022/08/02 07:44:47;;;;;;;7.40;1.00;;;;;;;26.23;62.19;100639.19;4986122;28;20480;-81
2022/08/02 07:47:13;;;;;;;7.25;1.20;;;;;;;26.83;59.31;100634.09;4965367;28;20035;-82
2022/08/02 07:49:45;;;;;;;13.18;1.10;;;;;;;27.72;56.02;100656.34;4981967;28;20034;-84
2022/08/02 07:52:13;;;;;;;6.32;1.10;;;;;;;27.84;56.21;100626.09;4984777;28;20484;-83
2022/08/02 07:54:43;;;;;;;5.05;1.02;;;;;;;28.00;55.49;100619.56;4968884;28;20034;-82
2022/08/02 07:57:25;;;;;;;10.48;1.05;;;;;;;27.94;55.49;100625.31;4992503;28;20392;-84
2022/08/02 08:06:09;;;;;;;6.00;1.20;;;;;;;28.22;55.84;100611.09;5267747;23;20043;-86
2022/08/02 08:08:34;;;;;;;5.47;1.17;;;;;;;28.44;54.51;100608.06;4962476;28;20034;-87
2022/08/02 08:11:00;;;;;;;9.15;1.08;;;;;;;28.55;53.15;100604.19;4976193;28;20113;-86
2022/08/02 08:13:26;;;;;;;5.68;1.20;;;;;;;28.36;53.19;100614.88;4982880;28;20031;-85
2022/08/02 08:15:51;;;;;;;9.30;1.08;;;;;;;27.88;54.27;100608.13;4978115;28;20041;-87
2022/08/02 08:18:17;;;;;;;10.85;1.05;;;;;;;27.84;54.89;100615.19;4943306;28;20451;-91
2022/08/02 08:20:45;;;;;;;10.32;1.13;;;;;;;28.07;54.23;100614.66;4956112;28;20035;-89
2022/08/02 08:23:14;;;;;;;4.68;0.98;;;;;;;28.68;52.48;100609.88;4980826;28;20035;-91
2022/08/02 08:25:40;;;;;;;12.07;1.15;;;;;;;28.74;51.48;100613.41;4995666;28;20090;-92
2022/08/02 08:28:05;;;;;;;4.10;0.98;;;;;;;29.07;49.87;100607.22;4981201;28;20042;-89
2022/08/02 08:30:31;;;;;;;10.32;0.90;;;;;;;28.50;51.44;100617.84;4958931;28;20510;-88
2022/08/02 08:32:57;;;;;;;5.57;1.10;;;;;;;28.14;52.91;100612.47;4973163;28;20572;-91
2022/08/02 08:35:23;;;;;;;16.80;1.20;;;;;;;27.87;53.63;100595.63;4964879;28;20408;-89
2022/08/02 08:37:48;;;;;;;4.57;1.08;;;;;;;27.87;53.77;100601.06;4959694;28;20101;-89
2022/08/02 08:40:14;;;;;;;5.85;1.40;;;;;;;27.92;52.96;100601.03;4978262;28;20094;-87
2022/08/02 08:42:40;;;;;;;5.50;1.02;;;;;;;28.06;52.55;100615.78;4997391;28;20034;-87
2022/08/02 08:45:07;;;;;;;8.25;1.55;;;;;;;28.80;50.09;100627.84;4998436;28;20019;-89
2022/08/02 08:47:38;;;;;;;6.57;0.90;;;;;;;29.29;48.91;100608.75;4986829;28;20523;-88
2022/08/02 08:50:10;;;;;;;6.50;0.80;;;;;;;29.51;47.15;100612.69;4973936;28;20031;-89
2022/08/02 08:52:48;;;;;;;4.40;0.98;;;;;;;29.57;46.71;100613.47;4958857;28;20034;-88
2022/08/02 08:55:14;;;;;;;9.35;1.20;;;;;;;29.71;45.72;100619.91;4955819;28;20038;-88
2022/08/02 08:57:41;;;;;;;7.90;0.82;;;;;;;29.30;45.94;100613.91;4967486;28;20432;-90
2022/08/02 09:00:10;;;;;;;5.38;1.38;;;;;;;29.79;45.30;100597.44;4969910;28;20035;-90
2022/08/02 09:02:36;;;;;;;9.18;1.02;;;;;;;29.65;45.47;100596.47;4972155;28;20082;-88
2022/08/02 09:05:02;;;;;;;11.27;0.88;;;;;;;29.99;43.58;100594.53;4968154;28;20055;-90
2022/08/02 09:07:27;;;;;;;4.18;0.82;;;;;;;30.21;42.68;100599.50;4975779;28;20101;-87
2022/08/02 09:09:53;;;;;;;5.78;0.82;;;;;;;30.09;43.41;100597.19;4975807;28;20488;-88
2022/08/02 09:12:23;;;;;;;7.28;0.70;;;;;;;30.20;41.75;100598.69;4958022;28;20030;-92
2022/08/02 09:14:49;;;;;;;5.15;0.98;;;;;;;30.15;42.12;100597.94;4976946;28;20034;-89
2022/08/02 09:17:15;;;;;;;2.72;0.70;;;;;;;29.73;42.95;100612.25;4969538;28;20507;-89
2022/08/02 09:19:41;;;;;;;4.35;1.20;;;;;;;29.99;42.48;100589.09;4962371;28;20034;-90
2022/08/02 09:22:09;;;;;;;4.35;0.70;;;;;;;29.71;42.63;100592.56;4962341;28;20031;-92
2022/08/02 09:24:55;;;;;;;6.25;0.90;;;;;;;29.71;42.42;100600.78;4950229;28;20038;-91
2022/08/02 09:27:21;;;;;;;6.85;0.93;;;;;;;30.07;41.89;100582.97;4986625;28;20039;-89
2022/08/02 09:29:51;;;;;;;5.43;1.10;;;;;;;30.53;40.24;100593.41;4985954;28;20047;-88
2022/08/02 09:32:17;;;;;;;5.97;0.65;;;;;;;30.83;40.51;100586.72;4981363;28;20045;-88
2022/08/02 09:34:45;;;;;;;6.82;1.08;;;;;;;30.64;40.54;100592.19;4982073;28;20480;-88
2022/08/02 09:37:30;;;;;;;2.50;0.60;;;;;;;30.66;40.22;100589.94;4974190;28;20034;-84
2022/08/02 09:40:02;;;;;;;2.70;0.68;;;;;;;30.80;39.62;100585.38;4954307;28;20050;-88
2022/08/02 09:42:28;;;;;;;;;;;;;;;31.07;38.71;100590.25;4968498;28;20082;-85
2022/08/02 09:45:04;;;;;;;2.50;0.75;;;;;;;30.50;39.30;100567.44;4970824;28;19961;-86
2022/08/02 09:47:30;;;;;;;8.48;0.63;;;;;;;31.21;38.39;100570.06;4955261;28;20122;-85
2022/08/02 09:49:56;;;;;;;3.80;0.82;;;;;;;31.21;38.18;100585.66;4977329;28;20114;-86
2022/08/02 09:52:26;;;;;;;3.03;0.60;;;;;;;31.23;37.80;100573.28;4972974;28;20378;-89
2022/08/02 09:54:51;;;;;;;1.08;0.50;;;;;;;31.53;37.56;100571.19;4973469;28;20600;-86
2022/08/02 09:57:26;;;;;;;6.68;0.85;;;;;;;31.78;37.48;100557.06;4972960;28;20126;-86
2022/08/02 09:59:53;;;;;;;4.78;0.68;;;;;;;31.05;37.74;100571.41;4969815;28;20129;-86
2022/08/02 10:02:19;;;;;;;4.43;0.80;;;;;;;31.36;37.56;100558.03;4954396;29;20665;-83
2022/08/02 10:04:44;;;;;;;3.88;0.60;;;;;;;31.58;36.63;100563.72;4954599;29;20126;-86
2022/08/02 10:07:11;;;;;;;2.88;0.60;;;;;;;31.08;37.47;100569.97;4954504;29;20043;-89
2022/08/02 10:09:37;;;;;;;6.40;0.73;;;;;;;31.62;36.45;100556.50;4947862;28;20035;-86
2022/08/02 10:12:06;;;;;;;3.63;0.60;;;;;;;31.57;36.57;100561.28;4972770;28;20038;-90
2022/08/02 10:14:38;;;;;;;1.70;0.60;;;;;;;31.91;36.17;100561.75;4974259;28;20035;-86
2022/08/02 10:17:05;;;;;;;0.85;0.50;;;;;;;31.97;36.41;100560.53;4973783;28;20439;-88
2022/08/02 10:19:30;;;;;;;2.58;0.73;;;;;;;31.71;35.74;100573.09;4972761;28;20038;-86
2022/08/02 10:21:57;;;;;;;9.13;0.77;;;;;;;31.35;36.71;100553.69;4973241;28;20066;-88
2022/08/02 10:24:27;;;;;;;6.47;0.73;;;;;;;31.61;36.20;100551.34;4975932;28;20031;-88
2022/08/02 10:26:54;;;;;;;4.97;0.70;;;;;;;31.99;35.08;100552.81;4981240;28;20146;-90
2022/08/02 10:29:28;;;;;;;5.88;0.77;;;;;;;32.14;35.25;100544.34;4965429;28;20046;-87
2022/08/02 10:32:03;;;;;;;8.65;0.77;;;;;;;32.34;35.17;100542.28;4983576;28;20113;-90
2022/08/02 10:34:54;;;;;;;2.85;0.55;;;;;;;32.74;34.30;100555.19;4979220;28;20035;-85
2022/08/02 10:37:21;;;;;;;3.38;0.70;;;;;;;32.64;33.62;100553.47;4979877;28;20070;-85
2022/08/02 10:39:55;;;;;;;3.38;0.68;;;;;;;32.52;33.80;100539.41;4981580;28;20481;-91
2022/08/02 10:42:46;;;;;;;2.85;0.52;;;;;;;32.66;33.86;100544.91;4982858;28;20035;-92
2022/08/02 10:45:15;;;;;;;3.45;0.60;;;;;;;32.76;33.30;100539.22;4981020;28;20035;-89
2022/08/02 10:47:58;;;;;;;0.85;0.43;;;;;;;32.68;33.51;100538.00;4986387;28;20070;-88
2022/08/02 10:51:02;;;;;;;6.97;0.65;;;;;;;32.70;33.78;100529.47;4973044;28;20050;-88
2022/08/02 10:53:31;;;;;;;1.38;0.52;;;;;;;32.42;33.10;100544.31;4901031;29;20041;-88
2022/08/02 10:55:58;;;;;;;3.17;0.68;;;;;;;32.16;33.84;100522.91;4900078;29;20568;-86
2022/08/02 10:58:34;;;;;;;1.55;0.55;;;;;;;32.02;33.84;100524.78;4916825;29;20040;-88
2022/08/02 11:01:31;;;;;;;2.40;0.50;;;;;;;31.97;33.86;100527.66;4904946;29;20056;-87
2022/08/02 11:04:03;;;;;;;1.13;0.43;;;;;;;31.94;35.71;100520.03;4901008;29;20040;-84
2022/08/02 11:06:29;;;;;;;7.50;0.70;;;;;;;32.48;33.49;100521.16;4885965;29;20545;-84
2022/08/02 11:09:26;;;;;;;1.23;0.40;;;;;;;32.38;32.31;100524.13;4983020;28;20117;-85
2022/08/02 11:12:06;;;;;;;2.40;0.80;;;;;;;33.01;31.19;100524.88;4978222;28;20042;-87
2022/08/02 11:15:05;;;;;;;2.33;0.80;;;;;;;33.04;31.23;100521.53;4998405;28;20034;-85
2022/08/02 11:18:16;;;;;;;2.08;0.70;;;;;;;33.30;31.63;100510.75;4997393;28;20062;-86
2022/08/02 11:20:45;;;;;;;7.85;0.50;;;;;;;33.79;31.14;100512.50;4939105;29;20036;-89
2022/08/02 11:23:38;;;;;;;1.73;0.60;;;;;;;33.78;31.61;100505.38;4933106;29;20051;-90
2022/08/02 11:26:29;;;;;;;4.68;0.50;;;;;;;33.40;31.88;100517.94;4932509;29;20088;-87
2022/08/02 11:29:00;;;;;;;1.92;0.50;;;;;;;33.49;31.19;100519.59;4935978;29;20087;-91
2022/08/02 11:31:28;;;;;;;1.15;0.50;;;;;;;33.25;31.65;100508.13;4945709;28;20047;-89
2022/08/02 11:33:57;;;;;;;2.13;0.63;;;;;;;33.09;32.49;100502.19;4994953;28;20042;-93
2022/08/02 11:36:23;;;;;;;2.58;0.80;;;;;;;33.58;31.71;100501.22;4997681;28;20049;-90
2022/08/02 11:39:16;;;;;;;0.65;0.43;;;;;;;33.30;31.57;100504.44;4978770;28;20457;-90
2022/08/02 11:41:50;;;;;;;1.55;0.52;;;;;;;32.45;32.66;100499.81;5015444;28;20030;-90
2022/08/02 11:44:19;;;;;;;3.67;1.25;;;;;;;31.80;33.93;100488.22;5007677;28;20028;-89
2022/08/02 11:47:09;;;;;;;2.42;0.80;;;;;;;31.42;34.64;100501.25;4983209;28;20039;-88
2022/08/02 11:49:37;;;;;;;3.55;0.80;;;;;;;31.36;35.17;100477.75;4989018;28;20034;-90
2022/08/02 11:52:05;;;;;;;2.60;0.60;;;;;;;31.50;34.54;100478.63;4962130;28;20073;-88
2022/08/02 11:54:35;;;;;;;1.75;0.50;;;;;;;31.68;34.40;100496.97;5006801;28;20030;-88
2022/08/02 11:57:20;;;;;;;3.15;0.70;;;;;;;31.53;33.93;100489.00;4990179;28;20043;-88
2022/08/02 11:59:51;;;;;;;1.80;0.60;;;;;;;31.32;34.08;100485.81;4968942;28;20081;-88
2022/08/02 12:02:19;;;;;;;4.35;0.60;;;;;;;31.44;34.54;100482.56;5006279;28;20038;-87
2022/08/02 12:04:52;;;;;;;3.58;0.70;;;;;;;31.38;34.38;100473.63;4995733;28;20045;-86
2022/08/02 12:07:29;;;;;;;1.90;0.50;;;;;;;31.33;34.80;100481.94;5003466;28;20038;-88
2022/08/02 12:09:59;;;;;;;2.33;0.70;;;;;;;31.27;35.17;100470.25;4998867;28;20039;-88
2022/08/02 12:12:25;;;;;;;4.90;0.77;;;;;;;31.48;34.63;100469.91;4995447;28;20034;-87
2022/08/02 12:14:54;;;;;;;2.40;0.63;;;;;;;31.40;34.33;100484.28;4994777;28;20065;-85
2022/08/02 12:24:01;;;;;;;3.33;0.57;;;;;;;31.06;35.73;100462.66;4997231;28;20052;-89
2022/08/02 12:26:28;;;;;;;3.45;0.60;;;;;;;31.35;35.05;100465.19;4996057;28;20034;-87
2022/08/02 12:32:42;;;;;;;11.85;0.77;;;;;;;30.94;36.21;100474.06;4993778;28;20127;-87
2022/08/02 12:39:00;;;;;;;11.25;1.50;;;;;;;30.71;37.23;100451.16;4993352;28;20045;-81
2022/08/02 12:41:29;;;;;;;2.40;0.80;;;;;;;30.84;36.42;100455.06;4980910;28;20085;-82
2022/08/02 12:47:48;;;;;;;2.58;0.70;;;;;;;31.09;35.87;100437.47;4977384;28;20089;-83
2022/08/02 12:50:20;;;;;;;2.53;0.60;;;;;;;31.21;35.80;100444.06;4945874;28;20066;-82
2022/08/02 12:52:48;;;;;;;4.60;0.82;;;;;;;31.15;36.15;100437.06;4978002;28;20278;-81
2022/08/02 12:59:01;;;;;;;3.28;0.70;;;;;;;31.31;35.89;100425.81;4981289;28;20567;-82
2022/08/02 13:05:14;;;;;;;3.55;0.80;;;;;;;31.35;36.14;100415.91;4979334;28;20131;-85
2022/08/02 13:07:39;;;;;;;3.83;0.80;;;;;;;31.23;36.35;100427.31;4980720;28;20047;-82
2022/08/02 13:10:05;;;;;;;3.00;0.65;;;;;;;31.26;35.67;100432.19;4981418;28;20042;-84
2022/08/02 13:12:33;;;;;;;4.28;1.10;;;;;;;31.27;35.83;100420.97;4980792;28;20039;-83
2022/08/02 13:18:46;;;;;;;5.07;1.17;;;;;;;31.00;37.33;100409.13;4994808;28;20092;-88
2022/08/02 13:21:12;;;;;;;3.33;0.90;;;;;;;31.14;37.60;100410.78;5011245;28;20140;-85
2022/08/02 13:27:27;;;;;;;5.97;0.80;;;;;;;31.02;37.89;100424.16;4996911;28;20034;-87
2022/08/02 13:33:42;;;;;;;5.57;1.10;;;;;;;30.84;38.18;100405.81;4999523;28;20114;-88
2022/08/02 13:36:08;;;;;;;4.88;1.10;;;;;;;31.07;38.13;100413.09;4982290;28;20026;-89
2022/08/02 13:38:33;;;;;;;2.33;0.80;;;;;;;31.12;38.03;100399.31;5014477;28;20083;-85
2022/08/02 13:41:08;;;;;;;7.03;0.80;;;;;;;31.05;38.02;100407.13;5014155;28;20018;-86